sensor_id;sensor_type;location;lat;lon;timestamp;P1;durP1;ratioP1;P2;durP2;ratioP2
32427;SDS011;18882;50.952;4.366;2022-09-02T00:01:48;3.95;;;2.13;;
32427;SDS011;18882;50.952;4.366;2022-09-02T00:04:15;5.68;;;2.63;;
32427;SDS011;18882;50.952;4.366;2022-09-02T00:06:47;3.40;;;2.30;;
32427;SDS011;18882;50.952;4.366;2022-09-02T00:09:14;7.05;;;2.58;;
32427;SDS011;18882;50.952;4.366;2022-09-02T00:11:43;4.80;;;2.33;;
32427;SDS011;18882;50.952;4.366;2022-09-02T00:14:12;2.53;;;1.98;;
32427;SDS011;18882;50.952;4.366;2022-09-02T00:16:42;7.72;;;2.20;;
32427;SDS011;18882;50.952;4.366;2022-09-02T00:19:13;5.30;;;2.22;;
32427;SDS011;18882;50.952;4.366;2022-09-02T00:21:39;4.72;;;2.35;;
32427;SDS011;18882;50.952;4.366;2022-09-02T00:24:05;6.30;;;2.28;;
32427;SDS011;18882;50.952;4.366;2022-09-02T00:26:31;3.33;;;2.28;;
32427;SDS011;18882;50.952;4.366;2022-09-02T00:28:57;3.40;;;2.60;;
32427;SDS011;18882;50.952;4.366;2022-09-02T00:31:23;5.20;;;2.17;;
32427;SDS011;18882;50.952;4.366;2022-09-02T00:33:50;4.05;;;2.13;;
32427;SDS011;18882;50.952;4.366;2022-09-02T00:36:16;3.55;;;2.47;;
32427;SDS011;18882;50.952;4.366;2022-09-02T00:38:41;2.45;;;2.08;;
32427;SDS011;18882;50.952;4.366;2022-09-02T00:41:08;4.63;;;2.30;;
32427;SDS011;18882;50.952;4.366;2022-09-02T00:43:40;8.10;;;2.45;;
32427;SDS011;18882;50.952;4.366;2022-09-02T00:46:08;4.80;;;2.55;;
32427;SDS011;18882;50.952;4.366;2022-09-02T00:48:35;3.67;;;1.77;;
32427;SDS011;18882;50.952;4.366;2022-09-02T00:51:05;3.72;;;2.20;;
32427;SDS011;18882;50.952;4.366;2022-09-02T00:53:32;3.20;;;2.50;;
32427;SDS011;18882;50.952;4.366;2022-09-02T00:55:58;2.85;;;2.05;;
32427;SDS011;18882;50.952;4.366;2022-09-02T00:58:26;2.97;;;1.88;;
32427;SDS011;18882;50.952;4.366;2022-09-02T01:00:57;6.85;;;2.47;;
32427;SDS011;18882;50.952;4.366;2022-09-02T01:03:25;3.03;;;2.33;;
32427;SDS011;18882;50.952;4.366;2022-09-02T01:05:53;4.97;;;2.25;;
32427;SDS011;18882;50.952;4.366;2022-09-02T01:08:24;5.82;;;2.17;;
32427;SDS011;18882;50.952;4.366;2022-09-02T01:10:54;2.97;;;2.22;;
32427;SDS011;18882;50.952;4.366;2022-09-02T01:13:22;2.78;;;2.03;;
32427;SDS011;18882;50.952;4.366;2022-09-02T01:15:54;4.30;;;2.38;;
32427;SDS011;18882;50.952;4.366;2022-09-02T01:18:24;5.63;;;2.30;;
32427;SDS011;18882;50.952;4.366;2022-09-02T01:20:52;6.35;;;2.40;;
32427;SDS011;18882;50.952;4.366;2022-09-02T01:23:19;8.40;;;2.15;;
32427;SDS011;18882;50.952;4.366;2022-09-02T01:25:45;5.28;;;2.53;;
32427;SDS011;18882;50.952;4.366;2022-09-02T01:28:12;5.53;;;2.05;;
32427;SDS011;18882;50.952;4.366;2022-09-02T01:30:40;2.35;;;2.13;;
32427;SDS011;18882;50.952;4.366;2022-09-02T01:33:09;5.93;;;2.42;;
32427;SDS011;18882;50.952;4.366;2022-09-02T01:35:36;4.70;;;2.13;;
32427;SDS011;18882;50.952;4.366;2022-09-02T01:38:02;7.38;;;2.58;;
32427;SDS011;18882;50.952;4.366;2022-09-02T01:40:28;3.70;;;2.35;;
32427;SDS011;18882;50.952;4.366;2022-09-02T01:42:57;6.03;;;2.65;;
32427;SDS011;18882;50.952;4.366;2022-09-02T01:45:26;4.35;;;2.13;;
32427;SDS011;18882;50.952;4.366;2022-09-02T01:47:53;4.82;;;2.25;;
32427;SDS011;18882;50.952;4.366;2022-09-02T01:50:19;7.38;;;1.88;;
32427;SDS011;18882;50.952;4.366;2022-09-02T01:52:45;3.38;;;1.80;;
32427;SDS011;18882;50.952;4.366;2022-09-02T01:57:36;5.75;;;1.90;;
32427;SDS011;18882;50.952;4.366;2022-09-02T02:00:02;6.57;;;2.65;;
32427;SDS011;18882;50.952;4.366;2022-09-02T02:02:30;4.88;;;1.95;;
32427;SDS011;18882;50.952;4.366;2022-09-02T02:04:56;3.63;;;2.03;;
32427;SDS011;18882;50.952;4.366;2022-09-02T02:07:23;4.30;;;2.47;;
32427;SDS011;18882;50.952;4.366;2022-09-02T02:09:49;2.97;;;1.80;;
32427;SDS011;18882;50.952;4.366;2022-09-02T02:12:15;5.25;;;2.30;;
32427;SDS011;18882;50.952;4.366;2022-09-02T02:14:42;8.05;;;2.00;;
32427;SDS011;18882;50.952;4.366;2022-09-02T02:17:07;5.25;;;2.05;;
32427;SDS011;18882;50.952;4.366;2022-09-02T02:19:33;5.97;;;2.40;;
32427;SDS011;18882;50.952;4.366;2022-09-02T02:21:59;3.15;;;2.13;;
32427;SDS011;18882;50.952;4.366;2022-09-02T02:24:25;5.15;;;2.30;;
32427;SDS011;18882;50.952;4.366;2022-09-02T02:26:51;4.03;;;2.03;;
32427;SDS011;18882;50.952;4.366;2022-09-02T02:29:17;6.53;;;2.33;;
32427;SDS011;18882;50.952;4.366;2022-09-02T02:31:44;4.40;;;1.85;;
32427;SDS011;18882;50.952;4.366;2022-09-02T02:34:10;3.00;;;2.03;;
32427;SDS011;18882;50.952;4.366;2022-09-02T02:36:36;6.75;;;2.63;;
32427;SDS011;18882;50.952;4.366;2022-09-02T02:39:03;3.47;;;2.15;;
32427;SDS011;18882;50.952;4.366;2022-09-02T02:41:33;3.17;;;2.22;;
32427;SDS011;18882;50.952;4.366;2022-09-02T02:43:58;5.78;;;2.25;;
32427;SDS011;18882;50.952;4.366;2022-09-02T02:46:24;5.43;;;1.95;;
32427;SDS011;18882;50.952;4.366;2022-09-02T02:48:50;2.85;;;2.03;;
32427;SDS011;18882;50.952;4.366;2022-09-02T02:51:16;4.82;;;2.10;;
32427;SDS011;18882;50.952;4.366;2022-09-02T02:53:41;3.35;;;2.17;;
32427;SDS011;18882;50.952;4.366;2022-09-02T02:56:07;3.42;;;2.20;;
32427;SDS011;18882;50.952;4.366;2022-09-02T02:58:33;2.30;;;1.95;;
32427;SDS011;18882;50.952;4.366;2022-09-02T03:00:59;10.25;;;2.25;;
32427;SDS011;18882;50.952;4.366;2022-09-02T03:03:26;4.93;;;2.58;;
32427;SDS011;18882;50.952;4.366;2022-09-02T03:05:52;3.45;;;2.38;;
32427;SDS011;18882;50.952;4.366;2022-09-02T03:08:18;7.03;;;2.25;;
32427;SDS011;18882;50.952;4.366;2022-09-02T03:10:45;4.70;;;1.90;;
32427;SDS011;18882;50.952;4.366;2022-09-02T03:13:13;3.80;;;2.65;;
32427;SDS011;18882;50.952;4.366;2022-09-02T03:15:39;2.50;;;2.28;;
32427;SDS011;18882;50.952;4.366;2022-09-02T03:18:05;3.60;;;2.90;;
32427;SDS011;18882;50.952;4.366;2022-09-02T03:20:31;6.10;;;2.97;;
32427;SDS011;18882;50.952;4.366;2022-09-02T03:22:57;3.47;;;2.20;;
32427;SDS011;18882;50.952;4.366;2022-09-02T03:25:24;5.35;;;2.80;;
32427;SDS011;18882;50.952;4.366;2022-09-02T03:27:51;5.95;;;2.80;;
32427;SDS011;18882;50.952;4.366;2022-09-02T03:30:18;4.72;;;1.88;;
32427;SDS011;18882;50.952;4.366;2022-09-02T03:32:46;7.28;;;2.50;;
32427;SDS011;18882;50.952;4.366;2022-09-02T03:35:13;2.88;;;2.13;;
32427;SDS011;18882;50.952;4.366;2022-09-02T03:37:41;4.75;;;2.38;;
32427;SDS011;18882;50.952;4.366;2022-09-02T03:40:08;4.50;;;2.42;;
32427;SDS011;18882;50.952;4.366;2022-09-02T03:42:37;3.78;;;2.40;;
32427;SDS011;18882;50.952;4.366;2022-09-02T03:45:03;6.05;;;2.70;;
32427;SDS011;18882;50.952;4.366;2022-09-02T03:47:30;6.85;;;2.90;;
32427;SDS011;18882;50.952;4.366;2022-09-02T03:49:56;5.35;;;2.35;;
32427;SDS011;18882;50.952;4.366;2022-09-02T03:52:23;8.40;;;3.40;;
32427;SDS011;18882;50.952;4.366;2022-09-02T03:54:49;5.82;;;2.58;;
32427;SDS011;18882;50.952;4.366;2022-09-02T03:57:15;6.65;;;2.38;;
32427;SDS011;18882;50.952;4.366;2022-09-02T03:59:41;5.45;;;2.72;;
32427;SDS011;18882;50.952;4.366;2022-09-02T04:02:06;4.70;;;2.42;;
32427;SDS011;18882;50.952;4.366;2022-09-02T04:04:32;2.90;;;2.47;;
32427;SDS011;18882;50.952;4.366;2022-09-02T04:06:58;4.32;;;3.13;;
32427;SDS011;18882;50.952;4.366;2022-09-02T04:09:24;2.63;;;2.30;;
32427;SDS011;18882;50.952;4.366;2022-09-02T04:11:50;3.75;;;2.85;;
32427;SDS011;18882;50.952;4.366;2022-09-02T04:14:16;5.25;;;2.55;;
32427;SDS011;18882;50.952;4.366;2022-09-02T04:16:42;6.82;;;2.92;;
32427;SDS011;18882;50.952;4.366;2022-09-02T04:19:07;6.88;;;2.95;;
32427;SDS011;18882;50.952;4.366;2022-09-02T04:21:34;4.90;;;3.00;;
32427;SDS011;18882;50.952;4.366;2022-09-02T04:24:03;3.67;;;3.05;;
32427;SDS011;18882;50.952;4.366;2022-09-02T04:26:30;3.95;;;2.90;;
32427;SDS011;18882;50.952;4.366;2022-09-02T04:28:56;4.47;;;2.55;;
32427;SDS011;18882;50.952;4.366;2022-09-02T04:31:22;7.15;;;3.20;;
32427;SDS011;18882;50.952;4.366;2022-09-02T04:33:55;4.95;;;2.72;;
32427;SDS011;18882;50.952;4.366;2022-09-02T04:36:22;5.03;;;2.92;;
32427;SDS011;18882;50.952;4.366;2022-09-02T04:38:48;4.93;;;2.38;;
32427;SDS011;18882;50.952;4.366;2022-09-02T04:41:21;6.25;;;2.65;;
32427;SDS011;18882;50.952;4.366;2022-09-02T04:43:49;19.05;;;2.90;;
32427;SDS011;18882;50.952;4.366;2022-09-02T04:46:16;4.47;;;3.22;;
32427;SDS011;18882;50.952;4.366;2022-09-02T04:48:42;6.28;;;2.63;;
32427;SDS011;18882;50.952;4.366;2022-09-02T04:51:10;6.15;;;2.67;;
32427;SDS011;18882;50.952;4.366;2022-09-02T04:53:38;6.25;;;2.25;;
32427;SDS011;18882;50.952;4.366;2022-09-02T04:56:08;6.22;;;2.50;;
32427;SDS011;18882;50.952;4.366;2022-09-02T04:58:36;6.65;;;2.60;;
32427;SDS011;18882;50.952;4.366;2022-09-02T05:01:09;8.13;;;2.63;;
32427;SDS011;18882;50.952;4.366;2022-09-02T05:03:40;3.30;;;2.70;;
32427;SDS011;18882;50.952;4.366;2022-09-02T05:06:08;2.65;;;2.38;;
32427;SDS011;18882;50.952;4.366;2022-09-02T05:08:36;4.95;;;3.15;;
32427;SDS011;18882;50.952;4.366;2022-09-02T05:11:05;4.28;;;3.05;;
32427;SDS011;18882;50.952;4.366;2022-09-02T05:13:32;8.65;;;3.05;;
32427;SDS011;18882;50.952;4.366;2022-09-02T05:15:57;3.97;;;2.40;;
32427;SDS011;18882;50.952;4.366;2022-09-02T05:18:23;3.97;;;2.72;;
32427;SDS011;18882;50.952;4.366;2022-09-02T05:20:49;4.60;;;2.88;;
32427;SDS011;18882;50.952;4.366;2022-09-02T05:23:15;4.90;;;2.90;;
32427;SDS011;18882;50.952;4.366;2022-09-02T05:25:41;4.60;;;3.25;;
32427;SDS011;18882;50.952;4.366;2022-09-02T05:28:07;3.53;;;2.47;;
32427;SDS011;18882;50.952;4.366;2022-09-02T05:30:33;4.90;;;2.85;;
32427;SDS011;18882;50.952;4.366;2022-09-02T05:33:00;4.78;;;3.00;;
32427;SDS011;18882;50.952;4.366;2022-09-02T05:35:26;4.32;;;2.90;;
32427;SDS011;18882;50.952;4.366;2022-09-02T05:37:52;6.28;;;2.95;;
32427;SDS011;18882;50.952;4.366;2022-09-02T05:40:17;10.30;;;3.38;;
32427;SDS011;18882;50.952;4.366;2022-09-02T05:42:43;12.30;;;3.25;;
32427;SDS011;18882;50.952;4.366;2022-09-02T05:45:09;6.20;;;2.60;;
32427;SDS011;18882;50.952;4.366;2022-09-02T05:47:35;15.93;;;3.40;;
32427;SDS011;18882;50.952;4.366;2022-09-02T05:50:02;7.90;;;3.22;;
32427;SDS011;18882;50.952;4.366;2022-09-02T05:52:28;3.97;;;3.03;;
32427;SDS011;18882;50.952;4.366;2022-09-02T05:54:54;6.65;;;3.25;;
32427;SDS011;18882;50.952;4.366;2022-09-02T05:57:20;6.00;;;2.75;;
32427;SDS011;18882;50.952;4.366;2022-09-02T05:59:47;9.48;;;3.30;;
32427;SDS011;18882;50.952;4.366;2022-09-02T06:02:15;8.25;;;3.47;;
32427;SDS011;18882;50.952;4.366;2022-09-02T06:04:42;7.22;;;3.25;;
32427;SDS011;18882;50.952;4.366;2022-09-02T06:07:12;5.53;;;3.10;;
32427;SDS011;18882;50.952;4.366;2022-09-02T06:09:39;5.55;;;3.17;;
32427;SDS011;18882;50.952;4.366;2022-09-02T06:12:06;6.80;;;2.97;;
32427;SDS011;18882;50.952;4.366;2022-09-02T06:14:32;3.72;;;2.72;;
32427;SDS011;18882;50.952;4.366;2022-09-02T06:16:59;3.17;;;2.88;;
32427;SDS011;18882;50.952;4.366;2022-09-02T06:19:25;3.60;;;2.70;;
32427;SDS011;18882;50.952;4.366;2022-09-02T06:21:54;10.80;;;3.17;;
32427;SDS011;18882;50.952;4.366;2022-09-02T06:24:21;6.80;;;3.30;;
32427;SDS011;18882;50.952;4.366;2022-09-02T06:26:47;6.18;;;3.28;;
32427;SDS011;18882;50.952;4.366;2022-09-02T06:29:13;7.38;;;3.17;;
32427;SDS011;18882;50.952;4.366;2022-09-02T06:31:40;9.02;;;4.15;;
32427;SDS011;18882;50.952;4.366;2022-09-02T06:34:07;3.63;;;2.88;;
32427;SDS011;18882;50.952;4.366;2022-09-02T06:36:37;6.45;;;3.00;;
32427;SDS011;18882;50.952;4.366;2022-09-02T06:39:04;5.55;;;3.40;;
32427;SDS011;18882;50.952;4.366;2022-09-02T06:41:30;7.32;;;3.42;;
32427;SDS011;18882;50.952;4.366;2022-09-02T06:43:59;10.70;;;3.45;;
32427;SDS011;18882;50.952;4.366;2022-09-02T06:46:28;5.43;;;3.58;;
32427;SDS011;18882;50.952;4.366;2022-09-02T06:48:55;8.82;;;3.97;;
32427;SDS011;18882;50.952;4.366;2022-09-02T06:51:23;5.72;;;3.45;;
32427;SDS011;18882;50.952;4.366;2022-09-02T06:53:53;11.90;;;3.40;;
32427;SDS011;18882;50.952;4.366;2022-09-02T06:56:19;4.70;;;2.85;;
32427;SDS011;18882;50.952;4.366;2022-09-02T06:58:45;10.32;;;3.40;;
32427;SDS011;18882;50.952;4.366;2022-09-02T07:01:21;8.70;;;2.85;;
32427;SDS011;18882;50.952;4.366;2022-09-02T07:03:49;10.00;;;3.35;;
32427;SDS011;18882;50.952;4.366;2022-09-02T07:06:38;6.80;;;3.55;;
32427;SDS011;18882;50.952;4.366;2022-09-02T07:09:05;7.10;;;3.05;;
32427;SDS011;18882;50.952;4.366;2022-09-02T07:11:33;6.13;;;2.92;;
32427;SDS011;18882;50.952;4.366;2022-09-02T07:13:59;4.95;;;2.60;;
32427;SDS011;18882;50.952;4.366;2022-09-02T07:16:29;9.50;;;2.95;;
32427;SDS011;18882;50.952;4.366;2022-09-02T07:18:57;16.58;;;3.88;;
32427;SDS011;18882;50.952;4.366;2022-09-02T07:21:25;8.02;;;3.13;;
32427;SDS011;18882;50.952;4.366;2022-09-02T07:23:53;12.43;;;3.63;;
32427;SDS011;18882;50.952;4.366;2022-09-02T07:26:20;7.50;;;3.42;;
32427;SDS011;18882;50.952;4.366;2022-09-02T07:28:46;4.90;;;3.35;;
32427;SDS011;18882;50.952;4.366;2022-09-02T07:31:13;5.13;;;2.33;;
32427;SDS011;18882;50.952;4.366;2022-09-02T07:33:40;3.45;;;2.75;;
32427;SDS011;18882;50.952;4.366;2022-09-02T07:36:07;9.80;;;3.50;;
32427;SDS011;18882;50.952;4.366;2022-09-02T07:38:34;10.77;;;3.13;;
32427;SDS011;18882;50.952;4.366;2022-09-02T07:41:00;7.97;;;2.47;;
32427;SDS011;18882;50.952;4.366;2022-09-02T07:43:27;7.70;;;3.22;;
32427;SDS011;18882;50.952;4.366;2022-09-02T07:45:54;10.27;;;2.60;;
32427;SDS011;18882;50.952;4.366;2022-09-02T07:48:21;10.60;;;2.70;;
32427;SDS011;18882;50.952;4.366;2022-09-02T07:50:48;6.40;;;2.65;;
32427;SDS011;18882;50.952;4.366;2022-09-02T07:53:14;6.68;;;2.50;;
32427;SDS011;18882;50.952;4.366;2022-09-02T07:55:42;7.15;;;2.97;;
32427;SDS011;18882;50.952;4.366;2022-09-02T07:58:08;6.43;;;2.38;;
32427;SDS011;18882;50.952;4.366;2022-09-02T08:00:35;3.75;;;2.70;;
32427;SDS011;18882;50.952;4.366;2022-09-02T08:03:02;2.63;;;1.95;;
32427;SDS011;18882;50.952;4.366;2022-09-02T08:05:29;6.75;;;1.95;;
32427;SDS011;18882;50.952;4.366;2022-09-02T08:07:55;4.60;;;2.28;;
32427;SDS011;18882;50.952;4.366;2022-09-02T08:10:21;5.40;;;2.28;;
32427;SDS011;18882;50.952;4.366;2022-09-02T08:12:49;2.45;;;2.25;;
32427;SDS011;18882;50.952;4.366;2022-09-02T08:15:15;6.35;;;2.25;;
32427;SDS011;18882;50.952;4.366;2022-09-02T08:17:44;3.42;;;1.95;;
32427;SDS011;18882;50.952;4.366;2022-09-02T08:20:12;3.30;;;1.98;;
32427;SDS011;18882;50.952;4.366;2022-09-02T08:22:39;4.20;;;2.22;;
32427;SDS011;18882;50.952;4.366;2022-09-02T08:25:05;4.18;;;2.33;;
32427;SDS011;18882;50.952;4.366;2022-09-02T08:27:32;5.13;;;2.58;;
32427;SDS011;18882;50.952;4.366;2022-09-02T08:29:58;2.55;;;2.13;;
32427;SDS011;18882;50.952;4.366;2022-09-02T08:32:25;2.35;;;2.17;;
32427;SDS011;18882;50.952;4.366;2022-09-02T08:34:51;3.80;;;2.25;;
32427;SDS011;18882;50.952;4.366;2022-09-02T08:37:17;4.68;;;2.42;;
32427;SDS011;18882;50.952;4.366;2022-09-02T08:39:43;6.10;;;2.10;;
32427;SDS011;18882;50.952;4.366;2022-09-02T08:42:28;5.88;;;2.13;;
32427;SDS011;18882;50.952;4.366;2022-09-02T08:50:39;3.10;;;2.42;;
32427;SDS011;18882;50.952;4.366;2022-09-02T08:53:17;7.43;;;2.38;;
32427;SDS011;18882;50.952;4.366;2022-09-02T08:55:54;3.08;;;2.00;;
32427;SDS011;18882;50.952;4.366;2022-09-02T08:58:25;2.78;;;2.13;;
32427;SDS011;18882;50.952;4.366;2022-09-02T09:01:02;5.10;;;2.30;;
32427;SDS011;18882;50.952;4.366;2022-09-02T09:09:34;2.13;;;2.00;;
32427;SDS011;18882;50.952;4.366;2022-09-02T09:12:22;8.35;;;2.33;;
32427;SDS011;18882;50.952;4.366;2022-09-02T09:17:55;2.55;;;2.15;;
32427;SDS011;18882;50.952;4.366;2022-09-02T09:20:24;2.67;;;2.15;;
32427;SDS011;18882;50.952;4.366;2022-09-02T09:22:54;3.38;;;2.25;;
32427;SDS011;18882;50.952;4.366;2022-09-02T09:25:21;7.95;;;2.35;;
32427;SDS011;18882;50.952;4.366;2022-09-02T09:27:54;3.20;;;2.00;;
32427;SDS011;18882;50.952;4.366;2022-09-02T09:30:21;5.75;;;2.05;;
32427;SDS011;18882;50.952;4.366;2022-09-02T09:32:54;4.97;;;2.42;;
32427;SDS011;18882;50.952;4.366;2022-09-02T09:35:22;4.38;;;1.95;;
32427;SDS011;18882;50.952;4.366;2022-09-02T09:37:49;2.67;;;2.10;;
32427;SDS011;18882;50.952;4.366;2022-09-02T09:42:47;1.85;;;1.75;;
32427;SDS011;18882;50.952;4.366;2022-09-02T09:45:21;4.25;;;1.63;;
32427;SDS011;18882;50.952;4.366;2022-09-02T09:53:29;2.03;;;1.75;;
32427;SDS011;18882;50.952;4.366;2022-09-02T09:55:58;4.93;;;1.90;;
32427;SDS011;18882;50.952;4.366;2022-09-02T09:58:46;3.25;;;1.90;;
32427;SDS011;18882;50.952;4.366;2022-09-02T10:01:21;6.32;;;2.33;;
32427;SDS011;18882;50.952;4.366;2022-09-02T10:04:24;3.83;;;2.20;;
32427;SDS011;18882;50.952;4.366;2022-09-02T10:06:56;3.65;;;1.73;;
32427;SDS011;18882;50.952;4.366;2022-09-02T10:12:04;2.05;;;1.92;;
32427;SDS011;18882;50.952;4.366;2022-09-02T10:14:32;4.20;;;2.10;;
32427;SDS011;18882;50.952;4.366;2022-09-02T10:31:33;5.38;;;2.33;;
32427;SDS011;18882;50.952;4.366;2022-09-02T10:37:12;2.15;;;1.77;;
32427;SDS011;18882;50.952;4.366;2022-09-02T10:45:23;4.88;;;2.10;;
32427;SDS011;18882;50.952;4.366;2022-09-02T10:48:02;3.70;;;1.85;;
32427;SDS011;18882;50.952;4.366;2022-09-02T10:51:00;2.40;;;1.73;;
32427;SDS011;18882;50.952;4.366;2022-09-02T10:56:07;2.38;;;1.80;;
32427;SDS011;18882;50.952;4.366;2022-09-02T10:58:56;2.55;;;1.67;;
32427;SDS011;18882;50.952;4.366;2022-09-02T11:01:34;2.13;;;1.65;;
32427;SDS011;18882;50.952;4.366;2022-09-02T11:04:08;2.22;;;1.52;;
32427;SDS011;18882;50.952;4.366;2022-09-02T11:06:46;1.70;;;1.60;;
32427;SDS011;18882;50.952;4.366;2022-09-02T11:12:06;3.15;;;1.80;;
32427;SDS011;18882;50.952;4.366;2022-09-02T11:20:03;1.80;;;1.50;;
32427;SDS011;18882;50.952;4.366;2022-09-02T11:22:43;3.65;;;1.40;;
32427;SDS011;18882;50.952;4.366;2022-09-02T11:25:22;3.35;;;1.23;;
32427;SDS011;18882;50.952;4.366;2022-09-02T11:33:22;1.70;;;1.60;;
32427;SDS011;18882;50.952;4.366;2022-09-02T11:36:15;1.45;;;1.35;;
32427;SDS011;18882;50.952;4.366;2022-09-02T11:44:22;1.50;;;1.40;;
32427;SDS011;18882;50.952;4.366;2022-09-02T11:52:58;2.08;;;1.27;;
32427;SDS011;18882;50.952;4.366;2022-09-02T11:58:38;1.35;;;1.25;;
32427;SDS011;18882;50.952;4.366;2022-09-02T12:01:22;2.25;;;1.40;;
32427;SDS011;18882;50.952;4.366;2022-09-02T12:04:02;1.58;;;1.30;;
32427;SDS011;18882;50.952;4.366;2022-09-02T12:07:20;1.73;;;1.27;;
32427;SDS011;18882;50.952;4.366;2022-09-02T12:09:48;1.33;;;1.23;;
32427;SDS011;18882;50.952;4.366;2022-09-02T12:17:44;2.15;;;1.00;;
32427;SDS011;18882;50.952;4.366;2022-09-02T12:23:05;0.95;;;0.95;;
32427;SDS011;18882;50.952;4.366;2022-09-02T12:28:13;1.05;;;0.65;;
32427;SDS011;18882;50.952;4.366;2022-09-02T12:31:14;3.03;;;1.02;;
32427;SDS011;18882;50.952;4.366;2022-09-02T12:33:37;2.65;;;1.02;;
32427;SDS011;18882;50.952;4.366;2022-09-02T12:36:05;1.38;;;1.00;;
32427;SDS011;18882;50.952;4.366;2022-09-02T12:38:39;2.50;;;1.40;;
32427;SDS011;18882;50.952;4.366;2022-09-02T12:52:07;4.05;;;1.20;;
32427;SDS011;18882;50.952;4.366;2022-09-02T12:54:53;2.03;;;1.25;;
32427;SDS011;18882;50.952;4.366;2022-09-02T12:57:20;1.05;;;0.95;;
32427;SDS011;18882;50.952;4.366;2022-09-02T13:00:04;5.38;;;1.40;;
32427;SDS011;18882;50.952;4.366;2022-09-02T13:14:02;1.08;;;1.08;;
32427;SDS011;18882;50.952;4.366;2022-09-02T13:22:39;4.43;;;1.13;;
32427;SDS011;18882;50.952;4.366;2022-09-02T13:28:53;1.50;;;1.40;;
32427;SDS011;18882;50.952;4.366;2022-09-02T13:30:56;4.25;;;1.35;;
32427;SDS011;18882;50.952;4.366;2022-09-02T13:35:57;1.77;;;1.13;;
32427;SDS011;18882;50.952;4.366;2022-09-02T13:38:24;1.05;;;0.95;;
32427;SDS011;18882;50.952;4.366;2022-09-02T13:40:51;1.20;;;1.10;;
32427;SDS011;18882;50.952;4.366;2022-09-02T13:45:43;1.17;;;1.08;;
32427;SDS011;18882;50.952;4.366;2022-09-02T13:50:45;1.50;;;1.40;;
32427;SDS011;18882;50.952;4.366;2022-09-02T13:53:20;4.68;;;1.00;;
32427;SDS011;18882;50.952;4.366;2022-09-02T13:56:00;1.30;;;1.20;;
32427;SDS011;18882;50.952;4.366;2022-09-02T14:00:55;1.55;;;1.00;;
32427;SDS011;18882;50.952;4.366;2022-09-02T14:03:22;3.00;;;1.10;;
32427;SDS011;18882;50.952;4.366;2022-09-02T14:05:49;2.78;;;1.42;;
32427;SDS011;18882;50.952;4.366;2022-09-02T14:08:23;1.05;;;1.05;;
32427;SDS011;18882;50.952;4.366;2022-09-02T14:10:53;1.00;;;1.00;;
32427;SDS011;18882;50.952;4.366;2022-09-02T14:13:20;2.30;;;1.05;;
32427;SDS011;18882;50.952;4.366;2022-09-02T14:15:47;1.88;;;1.10;;
32427;SDS011;18882;50.952;4.366;2022-09-02T14:23:34;1.33;;;0.80;;
32427;SDS011;18882;50.952;4.366;2022-09-02T14:26:04;11.13;;;1.17;;
32427;SDS011;18882;50.952;4.366;2022-09-02T14:28:32;2.88;;;0.82;;
32427;SDS011;18882;50.952;4.366;2022-09-02T14:31:03;1.48;;;0.80;;
32427;SDS011;18882;50.952;4.366;2022-09-02T14:33:38;1.58;;;1.00;;
32427;SDS011;18882;50.952;4.366;2022-09-02T14:41:27;1.17;;;1.00;;
32427;SDS011;18882;50.952;4.366;2022-09-02T14:43:58;3.63;;;0.88;;
32427;SDS011;18882;50.952;4.366;2022-09-02T14:46:32;1.02;;;0.85;;
32427;SDS011;18882;50.952;4.366;2022-09-02T14:49:03;6.93;;;1.10;;
32427;SDS011;18882;50.952;4.366;2022-09-02T14:51:33;1.42;;;1.33;;
32427;SDS011;18882;50.952;4.366;2022-09-02T14:54:03;0.70;;;0.70;;
32427;SDS011;18882;50.952;4.366;2022-09-02T14:56:43;1.38;;;1.08;;
32427;SDS011;18882;50.952;4.366;2022-09-02T14:59:10;2.28;;;1.23;;
32427;SDS011;18882;50.952;4.366;2022-09-02T15:01:39;0.82;;;0.82;;
32427;SDS011;18882;50.952;4.366;2022-09-02T15:04:07;1.88;;;1.23;;
32427;SDS011;18882;50.952;4.366;2022-09-02T15:06:34;1.35;;;1.25;;
32427;SDS011;18882;50.952;4.366;2022-09-02T15:09:00;1.27;;;1.10;;
32427;SDS011;18882;50.952;4.366;2022-09-02T15:11:25;1.73;;;1.10;;
32427;SDS011;18882;50.952;4.366;2022-09-02T15:13:52;3.00;;;0.90;;
32427;SDS011;18882;50.952;4.366;2022-09-02T15:16:17;1.48;;;1.00;;
32427;SDS011;18882;50.952;4.366;2022-09-02T15:18:44;1.67;;;1.10;;
32427;SDS011;18882;50.952;4.366;2022-09-02T15:21:10;3.80;;;1.40;;
32427;SDS011;18882;50.952;4.366;2022-09-02T15:23:35;1.30;;;1.20;;
32427;SDS011;18882;50.952;4.366;2022-09-02T15:26:04;1.75;;;0.80;;
32427;SDS011;18882;50.952;4.366;2022-09-02T15:28:30;1.55;;;1.10;;
32427;SDS011;18882;50.952;4.366;2022-09-02T15:30:57;2.42;;;0.93;;
32427;SDS011;18882;50.952;4.366;2022-09-02T15:33:23;0.98;;;0.90;;
32427;SDS011;18882;50.952;4.366;2022-09-02T15:35:49;1.67;;;0.82;;
32427;SDS011;18882;50.952;4.366;2022-09-02T15:38:14;2.15;;;0.90;;
32427;SDS011;18882;50.952;4.366;2022-09-02T15:40:41;0.70;;;0.70;;
32427;SDS011;18882;50.952;4.366;2022-09-02T15:43:09;0.77;;;0.73;;
32427;SDS011;18882;50.952;4.366;2022-09-02T15:45:40;0.85;;;0.82;;
32427;SDS011;18882;50.952;4.366;2022-09-02T15:48:09;2.80;;;0.80;;
32427;SDS011;18882;50.952;4.366;2022-09-02T15:50:35;0.98;;;0.98;;
32427;SDS011;18882;50.952;4.366;2022-09-02T15:53:01;1.30;;;0.80;;
32427;SDS011;18882;50.952;4.366;2022-09-02T15:55:26;1.23;;;0.93;;
32427;SDS011;18882;50.952;4.366;2022-09-02T15:57:55;3.50;;;0.80;;
32427;SDS011;18882;50.952;4.366;2022-09-02T16:00:21;4.55;;;1.02;;
32427;SDS011;18882;50.952;4.366;2022-09-02T16:02:47;1.83;;;0.90;;
32427;SDS011;18882;50.952;4.366;2022-09-02T16:05:13;0.75;;;0.70;;
32427;SDS011;18882;50.952;4.366;2022-09-02T16:07:39;0.90;;;0.90;;
32427;SDS011;18882;50.952;4.366;2022-09-02T16:10:05;1.00;;;0.80;;
32427;SDS011;18882;50.952;4.366;2022-09-02T16:12:31;1.52;;;1.00;;
32427;SDS011;18882;50.952;4.366;2022-09-02T16:14:57;2.15;;;0.80;;
32427;SDS011;18882;50.952;4.366;2022-09-02T16:17:22;1.33;;;0.85;;
32427;SDS011;18882;50.952;4.366;2022-09-02T16:19:48;1.08;;;1.00;;
32427;SDS011;18882;50.952;4.366;2022-09-02T16:22:14;1.42;;;1.02;;
32427;SDS011;18882;50.952;4.366;2022-09-02T16:24:39;1.05;;;0.93;;
32427;SDS011;18882;50.952;4.366;2022-09-02T16:27:05;2.45;;;1.00;;
32427;SDS011;18882;50.952;4.366;2022-09-02T16:29:31;1.48;;;1.00;;
32427;SDS011;18882;50.952;4.366;2022-09-02T16:31:57;5.68;;;0.82;;
32427;SDS011;18882;50.952;4.366;2022-09-02T16:34:22;4.35;;;0.65;;
32427;SDS011;18882;50.952;4.366;2022-09-02T16:36:48;0.80;;;0.80;;
32427;SDS011;18882;50.952;4.366;2022-09-02T16:39:15;1.08;;;1.00;;
32427;SDS011;18882;50.952;4.366;2022-09-02T16:41:46;0.68;;;0.68;;
32427;SDS011;18882;50.952;4.366;2022-09-02T16:44:15;1.08;;;0.80;;
32427;SDS011;18882;50.952;4.366;2022-09-02T16:46:42;0.65;;;0.65;;
32427;SDS011;18882;50.952;4.366;2022-09-02T16:49:10;4.07;;;0.90;;
32427;SDS011;18882;50.952;4.366;2022-09-02T16:51:38;0.57;;;0.57;;
32427;SDS011;18882;50.952;4.366;2022-09-02T16:54:05;1.75;;;0.60;;
32427;SDS011;18882;50.952;4.366;2022-09-02T16:56:32;1.88;;;0.60;;
32427;SDS011;18882;50.952;4.366;2022-09-02T16:59:00;0.63;;;0.63;;
32427;SDS011;18882;50.952;4.366;2022-09-02T17:01:27;0.82;;;0.82;;
32427;SDS011;18882;50.952;4.366;2022-09-02T17:03:53;1.40;;;0.88;;
32427;SDS011;18882;50.952;4.366;2022-09-02T17:06:19;6.07;;;1.70;;
32427;SDS011;18882;50.952;4.366;2022-09-02T17:08:45;4.45;;;0.85;;
32427;SDS011;18882;50.952;4.366;2022-09-02T17:13:58;4.72;;;0.90;;
32427;SDS011;18882;50.952;4.366;2022-09-02T17:16:43;1.33;;;1.20;;
32427;SDS011;18882;50.952;4.366;2022-09-02T17:19:10;1.98;;;1.00;;
32427;SDS011;18882;50.952;4.366;2022-09-02T17:21:44;6.85;;;1.33;;
32427;SDS011;18882;50.952;4.366;2022-09-02T17:24:11;2.78;;;1.02;;
32427;SDS011;18882;50.952;4.366;2022-09-02T17:26:39;4.65;;;1.10;;